Pattonville Airfield

EDTQ · 巴登-符腾堡, 德国

罗盘
风向 的 风向 的 风向 到 风向 230° Pattonville Airport 10/28
风: 8 kt, 3 beaufort

5 kt

6 kt
改变
0 ft 1.000 2.000 3.000 4.000 5.000
Cloud Cloud
FEW 2.000
METAR EDDS 301720Z AUTO 23008KT 190V250 9999 FEW020 01/M00 Q1022 NOSIG

METAR Pattonville Airport - EDTQ

Pattonville Airport是,德国中的小机场。 该机场有一条跑道: 10/28. 该领域的国际民航组织标志是EDTQ.

这份报告是针对2023年1月30日 18:20, 当地时间在Stuttgart Airport进行的。

机场观察

风向为230°,速度为8 kt。 风向在190°和250°之间变化。

可见度为10 km 或者更多。

有几云在2.000 ft的高度。 没有观察到天花板。

温度为1 °C,阵风为-5 °C。 海平面上的气压为1022 hPa (QNH)。

白天

今天,太阳从07:56升起,在17:16降落。 这适用于Pattonville Airport,世界夏令时可能有所不同。 当地时间与世界标准时间之间的时差为+1 小时。 当前,没有夏令时有效。

公司介绍

我们没有关于这个机场的公司信息。

体会

到Vliegles.nl去找飞行课程,跳伞和其他飞行体验。 浏览页面,了解Pattonville Airport附近所有可用的活动。 你也可以使用搜索功能来寻找你所在地附近的特定飞行课程、跳伞或其他飞行体验。

跑道

Id 标题 侧风 逆风 侧风 %
10/28 100°-280° 6 kt 5 kt 77 %

逆风成分最大的方向会被突出显示,并用于横风计算。 这并不一定意味着这个方向在使用。

乌云

2.000 ft FEW 几云

温度 & 天气

温度 1 °C
露点 0 °C
相对湿度 93%
风寒 -5 °C
Kp-index 0 (0-9)

白天

日出
07:55 (13:15)
中午
12:36
日落
17:17

小工具

你想在你的网站上有一个关于Pattonville Airport的当前航空天气(METAR)的小部件吗?

显示HTML代码

我们和第三方通过cookies跟踪您在我们网站上的互联网行为。如果你继续,我们认为你同意我们的饼干政策